Indian, Alaska
Current Conditions -  °F | °C
As of 4:53 PM on Friday 19 Dec 2014 (Local Time) from PALH Reporting Station
Overcast Overcast  
Wind Chill: 17°   Ceiling: 7500
Heat Index: 23°   Visibility: 10mi
Dew Point: 14°   Wind: 5mph
Humidity: 68%   Direction: 50°NE
Pressure: 29.17"   Gusts: NA
Location:  61.17°N, 149.95°W
Report Text: PALH 200153Z 05004KT 10SM OVC075 M05/M10 A2917 RMK AO2 SLP877 T10501100
Loading
Personal Weather Stations






























Interactive Weather Map New forecast layout! Learn more

10-Day Weather Forecast

Advertisements
Track Severe Weather on mobile